createdAt,value
2019-06-26T00:01:07.407Z,13.00
2019-06-26T00:03:38.508Z,13.30
2019-06-26T00:06:09.214Z,13.40
2019-06-26T00:08:40.057Z,13.40
2019-06-26T00:11:11.055Z,13.50
2019-06-26T00:13:41.730Z,12.83
2019-06-26T00:16:12.452Z,12.90
2019-06-26T00:18:44.495Z,13.30
2019-06-26T00:21:15.555Z,12.60
2019-06-26T00:23:46.651Z,13.20
2019-06-26T00:26:17.396Z,13.60
2019-06-26T00:28:48.090Z,13.40
2019-06-26T00:31:19.106Z,14.00
2019-06-26T00:33:49.827Z,13.27
2019-06-26T00:36:20.521Z,14.00
2019-06-26T00:38:51.295Z,14.37
2019-06-26T00:41:22.537Z,13.07
2019-06-26T00:43:53.240Z,13.27
2019-06-26T00:46:24.088Z,14.27
2019-06-26T00:48:55.103Z,13.43
2019-06-26T00:51:25.811Z,13.13
2019-06-26T00:53:56.493Z,14.27
2019-06-26T00:56:27.532Z,13.80
2019-06-26T00:58:58.322Z,13.57
2019-06-26T01:01:29.135Z,14.77
2019-06-26T01:04:01.451Z,14.70
2019-06-26T01:06:44.421Z,13.70
2019-06-26T01:09:16.312Z,13.80
2019-06-26T01:11:47.327Z,13.43
2019-06-26T01:14:18.095Z,14.83
2019-06-26T01:16:50.376Z,14.90
2019-06-26T01:19:21.371Z,15.30
2019-06-26T01:21:52.347Z,15.60
2019-06-26T01:24:23.025Z,14.83
2019-06-26T01:26:54.023Z,16.20
2019-06-26T01:29:24.702Z,16.03
2019-06-26T01:31:55.423Z,15.60
2019-06-26T01:34:26.094Z,15.50
2019-06-26T01:36:56.831Z,15.93
2019-06-26T01:39:27.840Z,16.00
2019-06-26T01:41:58.989Z,15.47
2019-06-26T01:44:29.642Z,16.50
2019-06-26T01:47:00.444Z,15.40
2019-06-26T01:49:31.168Z,16.53
2019-06-26T01:52:02.041Z,15.87
2019-06-26T01:54:33.081Z,16.33
2019-06-26T01:57:04.058Z,17.20
2019-06-26T01:59:35.048Z,15.10
2019-06-26T02:02:05.888Z,16.90
2019-06-26T02:04:37.739Z,16.10
2019-06-26T02:07:08.430Z,16.70
2019-06-26T02:09:39.577Z,17.60
2019-06-26T02:12:10.441Z,17.10
2019-06-26T02:14:41.188Z,16.70
2019-06-26T02:17:11.905Z,18.07
2019-06-26T02:19:43.029Z,16.30
2019-06-26T02:22:13.755Z,17.90
2019-06-26T02:24:44.449Z,16.90
2019-06-26T02:27:15.213Z,16.07
2019-06-26T02:29:46.195Z,16.40
2019-06-26T02:32:17.240Z,17.57
2019-06-26T02:34:47.925Z,17.93
2019-06-26T02:37:19.053Z,17.27
2019-06-26T02:39:49.830Z,18.03
2019-06-26T02:42:20.920Z,17.70
2019-06-26T02:44:54.463Z,17.37
2019-06-26T02:47:24.310Z,16.37
2019-06-26T02:49:55.022Z,15.73
2019-06-26T02:52:25.679Z,17.63
2019-06-26T02:54:56.846Z,18.30
2019-06-26T02:57:27.869Z,17.03
2019-06-26T03:00:00.000Z,17.60
2019-06-26T03:02:31.266Z,17.63
2019-06-26T03:05:01.991Z,16.90
2019-06-26T03:07:33.040Z,18.50
2019-06-26T03:10:05.318Z,18.60
2019-06-26T03:12:36.790Z,18.23
2019-06-26T03:15:10.002Z,17.67
2019-06-26T03:17:54.039Z,18.10
2019-06-26T03:20:14.674Z,18.60
2019-06-26T03:22:45.444Z,17.67
2019-06-26T03:25:16.527Z,16.77
2019-06-26T03:27:47.241Z,17.23
2019-06-26T03:30:19.423Z,17.83
2019-06-26T03:32:50.088Z,18.57
2019-06-26T03:35:20.919Z,17.30
2019-06-26T03:37:51.999Z,18.27
2019-06-26T03:40:22.743Z,18.60
2019-06-26T03:42:53.813Z,18.40
2019-06-26T03:45:26.389Z,18.30
2019-06-26T03:47:57.027Z,18.60
2019-06-26T03:50:27.739Z,17.73
2019-06-26T03:52:58.742Z,18.70
2019-06-26T03:55:29.613Z,17.83
2019-06-26T03:58:00.703Z,18.70
2019-06-26T04:00:43.015Z,16.83
2019-06-26T04:03:14.384Z,17.93
2019-06-26T04:05:45.583Z,17.37
2019-06-26T04:08:16.725Z,17.63
2019-06-26T04:10:47.817Z,19.83
2019-06-26T04:13:18.738Z,17.73
2019-06-26T04:15:51.147Z,17.60
2019-06-26T04:18:22.012Z,17.07
2019-06-26T04:20:52.883Z,18.23
2019-06-26T04:23:23.951Z,17.70
2019-06-26T04:25:54.717Z,16.60
2019-06-26T04:28:25.824Z,16.90
2019-06-26T04:30:56.824Z,16.93
2019-06-26T04:33:27.528Z,14.67
2019-06-26T04:35:58.491Z,15.80
2019-06-26T04:38:29.537Z,15.37
2019-06-26T04:41:00.796Z,15.27
2019-06-26T04:43:31.802Z,14.50
2019-06-26T04:46:03.172Z,16.13
2019-06-26T04:48:34.246Z,14.23
2019-06-26T04:51:05.725Z,14.70
2019-06-26T04:53:36.893Z,14.97
2019-06-26T04:56:07.966Z,14.27
2019-06-26T04:58:39.083Z,14.83
2019-06-26T05:01:09.777Z,15.40
2019-06-26T05:03:40.925Z,15.23
2019-06-26T05:06:12.241Z,15.30
2019-06-26T05:08:42.945Z,15.33
2019-06-26T05:11:13.798Z,14.97
2019-06-26T05:13:44.492Z,15.93
2019-06-26T05:16:19.938Z,15.50
2019-06-26T05:18:47.621Z,16.13
2019-06-26T05:21:18.752Z,15.80
2019-06-26T05:23:49.432Z,15.10
2019-06-26T05:26:20.564Z,16.00
2019-06-26T05:28:51.570Z,15.13
2019-06-26T05:31:22.729Z,15.20
2019-06-26T05:33:53.424Z,14.70
2019-06-26T05:36:24.547Z,14.40
2019-06-26T05:38:55.656Z,14.63
2019-06-26T05:41:27.692Z,15.27
2019-06-26T05:43:58.401Z,15.83
2019-06-26T05:46:31.580Z,15.60
2019-06-26T05:49:01.779Z,15.20
2019-06-26T05:51:32.465Z,15.47
2019-06-26T05:54:03.169Z,15.60
2019-06-26T05:56:34.461Z,15.10
2019-06-26T05:59:05.679Z,15.47
2019-06-26T06:01:36.419Z,14.97
2019-06-26T06:04:07.469Z,14.83
2019-06-26T06:06:42.017Z,14.63
2019-06-26T06:09:10.706Z,16.20
2019-06-26T06:11:41.721Z,14.30
2019-06-26T06:14:12.758Z,15.40
2019-06-26T06:16:47.711Z,15.10
2019-06-26T06:19:15.906Z,15.03
2019-06-26T06:21:48.037Z,15.30
2019-06-26T06:24:18.797Z,13.57
2019-06-26T06:26:49.908Z,15.47
2019-06-26T06:29:20.816Z,14.57
2019-06-26T06:31:51.957Z,15.53
2019-06-26T06:34:23.025Z,15.23
2019-06-26T06:36:53.710Z,15.77
2019-06-26T06:39:24.690Z,15.57
2019-06-26T06:41:55.726Z,15.63
2019-06-26T06:44:26.420Z,14.80
2019-06-26T06:47:04.073Z,14.77
2019-06-26T06:49:29.856Z,14.53
2019-06-26T06:52:00.901Z,14.60
2019-06-26T06:54:31.933Z,14.63
2019-06-26T06:57:02.813Z,14.53
2019-06-26T06:59:33.463Z,14.30
2019-06-26T07:02:04.180Z,16.00
2019-06-26T07:04:34.900Z,14.43
2019-06-26T07:07:05.566Z,13.17
2019-06-26T07:09:36.234Z,14.70
2019-06-26T07:12:07.345Z,14.60
2019-06-26T07:14:38.338Z,14.33
2019-06-26T07:17:19.951Z,14.70
2019-06-26T07:19:41.637Z,14.50
2019-06-26T07:22:12.514Z,14.37
2019-06-26T07:24:43.519Z,14.43
2019-06-26T07:27:14.386Z,14.10
2019-06-26T07:29:45.081Z,14.00
2019-06-26T07:32:16.111Z,13.63
2019-06-26T07:34:47.187Z,13.13
2019-06-26T07:37:20.926Z,13.13
2019-06-26T07:39:50.556Z,14.07
2019-06-26T07:42:21.661Z,14.03
2019-06-26T07:44:53.321Z,13.37
2019-06-26T07:47:41.559Z,12.50
2019-06-26T07:49:56.792Z,12.03
2019-06-26T07:52:27.804Z,12.60
2019-06-26T07:54:58.507Z,11.57
2019-06-26T07:57:29.503Z,11.47
2019-06-26T08:00:04.916Z,8.80
2019-06-26T08:02:30.262Z,9.23
2019-06-26T08:05:01.000Z,9.83
2019-06-26T08:07:33.286Z,10.03
2019-06-26T08:10:05.746Z,9.63
2019-06-26T08:12:37.702Z,9.10
2019-06-26T08:15:09.271Z,9.43
2019-06-26T08:17:39.991Z,9.28
2019-06-26T08:20:11.320Z,9.28
2019-06-26T08:22:42.105Z,8.50
2019-06-26T08:25:13.159Z,8.33
2019-06-26T08:27:44.913Z,8.00
2019-06-26T08:30:16.449Z,7.78
2019-06-26T08:32:47.505Z,6.70
2019-06-26T08:35:18.801Z,6.50
2019-06-26T08:37:49.899Z,6.65
2019-06-26T08:40:21.196Z,7.20
2019-06-26T08:42:51.896Z,7.28
2019-06-26T08:45:22.705Z,7.07
2019-06-26T08:47:53.832Z,7.07
2019-06-26T08:50:24.756Z,7.63
2019-06-26T08:52:55.831Z,7.53
2019-06-26T08:55:27.773Z,7.30
2019-06-26T08:57:58.837Z,8.20
2019-06-26T09:00:29.886Z,7.67
2019-06-26T09:03:00.548Z,7.87
2019-06-26T09:05:47.008Z,7.33
2019-06-26T09:08:05.521Z,7.90
2019-06-26T09:10:37.004Z,8.17
2019-06-26T09:13:07.738Z,8.23
2019-06-26T09:15:38.821Z,7.90
2019-06-26T09:18:09.817Z,8.73
2019-06-26T09:20:41.955Z,8.50
2019-06-26T09:23:12.912Z,8.57
2019-06-26T09:25:43.981Z,8.37
2019-06-26T09:28:14.671Z,7.77
2019-06-26T09:30:45.757Z,7.87
2019-06-26T09:33:16.801Z,8.40
2019-06-26T09:35:47.583Z,8.10
2019-06-26T09:38:18.636Z,7.97
2019-06-26T09:40:49.615Z,7.80
2019-06-26T09:43:20.557Z,7.77
2019-06-26T09:45:51.267Z,8.17
2019-06-26T09:48:21.950Z,7.37
2019-06-26T09:50:52.919Z,7.70
2019-06-26T09:53:23.901Z,8.23
2019-06-26T09:55:54.666Z,6.97
2019-06-26T09:58:25.646Z,7.23
2019-06-26T10:00:56.292Z,8.20
2019-06-26T10:03:27.042Z,7.30
2019-06-26T10:05:58.152Z,6.80
2019-06-26T10:08:28.866Z,6.83
2019-06-26T10:10:59.656Z,6.93
2019-06-26T10:13:30.852Z,6.27
2019-06-26T10:16:01.583Z,7.77
2019-06-26T10:18:32.657Z,7.03
2019-06-26T10:21:03.363Z,6.87
2019-06-26T10:23:34.136Z,6.57
2019-06-26T10:26:04.801Z,7.13
2019-06-26T10:28:35.736Z,7.53
2019-06-26T10:31:06.916Z,7.37
2019-06-26T10:33:37.877Z,6.90
2019-06-26T10:36:08.609Z,7.10
2019-06-26T10:38:42.927Z,6.93
2019-06-26T10:41:14.182Z,7.00
2019-06-26T10:43:45.273Z,6.70
2019-06-26T10:46:16.448Z,7.10
2019-06-26T10:48:47.374Z,7.00
2019-06-26T10:51:18.387Z,7.50
2019-06-26T10:53:49.177Z,7.40
2019-06-26T10:56:19.865Z,7.17
2019-06-26T10:58:50.995Z,7.00
2019-06-26T11:01:21.650Z,7.33
2019-06-26T11:03:53.621Z,6.97
2019-06-26T11:06:24.456Z,7.00
2019-06-26T11:08:55.492Z,7.00
2019-06-26T11:11:26.452Z,7.30
2019-06-26T11:13:57.409Z,7.47
2019-06-26T11:16:28.449Z,7.00
2019-06-26T11:18:59.279Z,7.83
2019-06-26T11:21:30.370Z,7.73
2019-06-26T11:24:01.011Z,7.30
2019-06-26T11:26:32.147Z,7.17
2019-06-26T11:29:03.473Z,8.07
2019-06-26T11:31:34.516Z,7.77
2019-06-26T11:34:05.190Z,7.47
2019-06-26T11:36:36.002Z,7.40
2019-06-26T11:39:09.101Z,8.03
2019-06-26T11:41:40.033Z,8.07
2019-06-26T11:44:11.011Z,7.40
2019-06-26T11:46:41.719Z,7.60
2019-06-26T11:49:12.470Z,8.23
2019-06-26T11:51:43.548Z,7.63
2019-06-26T11:54:14.225Z,7.30
2019-06-26T11:56:44.902Z,9.90
2019-06-26T11:59:15.910Z,8.80
2019-06-26T12:01:46.599Z,8.07
2019-06-26T12:04:17.659Z,6.87
2019-06-26T12:06:48.783Z,8.13
2019-06-26T12:09:19.560Z,7.53
2019-06-26T12:11:50.673Z,8.60
2019-06-26T12:14:21.791Z,7.37
2019-06-26T12:16:53.764Z,9.37
2019-06-26T12:19:24.675Z,8.40
2019-06-26T12:21:55.672Z,8.37
2019-06-26T12:24:26.796Z,8.40
2019-06-26T12:26:57.936Z,9.50
2019-06-26T12:29:32.669Z,7.63
2019-06-26T12:32:02.741Z,8.37
2019-06-26T12:34:33.708Z,7.60
2019-06-26T12:37:04.857Z,9.20
2019-06-26T12:39:35.934Z,10.20
2019-06-26T12:42:06.936Z,7.73
2019-06-26T12:44:38.032Z,7.70
2019-06-26T12:47:08.870Z,7.53
2019-06-26T12:49:40.603Z,8.33
2019-06-26T12:52:11.645Z,8.93
2019-06-26T12:54:42.469Z,9.23
2019-06-26T12:57:13.664Z,8.30
2019-06-26T12:59:56.810Z,7.53
2019-06-26T13:02:17.334Z,9.40
2019-06-26T13:04:48.240Z,9.60
2019-06-26T13:07:18.987Z,8.13
2019-06-26T13:09:49.637Z,10.13
2019-06-26T13:12:20.432Z,7.93
2019-06-26T13:14:51.118Z,7.80
2019-06-26T13:17:21.856Z,7.97
2019-06-26T13:19:53.621Z,7.83
2019-06-26T13:22:24.622Z,7.70
2019-06-26T13:24:55.503Z,9.33
2019-06-26T13:27:26.790Z,7.87
2019-06-26T13:29:57.833Z,8.10
2019-06-26T13:32:29.845Z,7.63
2019-06-26T13:35:00.953Z,9.57
2019-06-26T13:37:32.253Z,11.23
2019-06-26T13:40:05.506Z,9.17
2019-06-26T13:42:36.409Z,9.47
2019-06-26T13:45:09.231Z,6.37
2019-06-26T13:47:40.081Z,9.90
2019-06-26T13:50:11.651Z,6.60
2019-06-26T13:52:42.494Z,7.53
2019-06-26T13:55:14.180Z,7.57
2019-06-26T13:57:44.918Z,11.97
2019-06-26T14:00:17.343Z,6.60
2019-06-26T14:02:48.389Z,9.33
2019-06-26T14:05:20.523Z,7.30
2019-06-26T14:07:51.497Z,8.47
2019-06-26T14:10:22.553Z,11.40
2019-06-26T14:12:53.644Z,8.87
2019-06-26T14:15:25.557Z,11.13
2019-06-26T14:17:56.284Z,8.23
2019-06-26T14:20:27.284Z,8.47
2019-06-26T14:22:57.962Z,10.63
2019-06-26T14:25:28.839Z,13.23
2019-06-26T14:27:59.858Z,10.90
2019-06-26T14:30:30.848Z,11.17
2019-06-26T14:33:01.553Z,7.63
2019-06-26T14:35:32.520Z,9.13
2019-06-26T14:38:03.575Z,11.10
2019-06-26T14:40:34.595Z,9.03
2019-06-26T14:43:05.312Z,10.47
2019-06-26T14:45:36.348Z,10.00
2019-06-26T14:48:07.383Z,10.60
2019-06-26T14:50:38.554Z,10.13
2019-06-26T14:53:09.818Z,7.30
2019-06-26T14:55:40.626Z,7.93
2019-06-26T14:58:11.316Z,10.50
2019-06-26T15:00:42.602Z,11.13
2019-06-26T15:03:13.462Z,9.00
2019-06-26T15:05:44.504Z,12.10
2019-06-26T15:08:15.184Z,10.63
2019-06-26T15:10:45.957Z,8.77
2019-06-26T15:13:16.965Z,9.83
2019-06-26T15:15:48.039Z,10.33
2019-06-26T15:18:18.882Z,8.70
2019-06-26T15:20:49.681Z,9.60
2019-06-26T15:23:22.551Z,10.57
2019-06-26T15:25:53.614Z,7.33
2019-06-26T15:28:27.980Z,8.17
2019-06-26T15:30:59.043Z,10.10
2019-06-26T15:33:29.784Z,9.63
2019-06-26T15:36:00.750Z,9.23
2019-06-26T15:38:31.436Z,10.87
2019-06-26T15:41:02.227Z,10.10
2019-06-26T15:43:33.757Z,7.10
2019-06-26T15:46:05.366Z,9.10
2019-06-26T15:48:36.376Z,9.27
2019-06-26T15:51:07.122Z,9.43
2019-06-26T15:53:37.810Z,12.93
2019-06-26T15:56:08.681Z,12.40
2019-06-26T15:58:39.488Z,8.40
2019-06-26T16:01:10.229Z,9.80
2019-06-26T16:03:41.193Z,9.70
2019-06-26T16:06:12.293Z,9.87
2019-06-26T16:08:43.292Z,12.33
2019-06-26T16:11:14.404Z,10.73
2019-06-26T16:13:45.478Z,9.93
2019-06-26T16:16:16.314Z,9.20
2019-06-26T16:18:48.982Z,10.17
2019-06-26T16:21:19.822Z,10.73
2019-06-26T16:23:50.627Z,12.53
2019-06-26T16:26:21.324Z,11.53
2019-06-26T16:28:52.557Z,8.50
2019-06-26T16:31:23.512Z,12.67
2019-06-26T16:33:54.494Z,8.93
2019-06-26T16:36:25.553Z,10.50
2019-06-26T16:38:56.490Z,11.53
2019-06-26T16:41:27.442Z,9.63
2019-06-26T16:43:58.439Z,9.70
2019-06-26T16:46:29.418Z,11.30
2019-06-26T16:49:00.530Z,10.13
2019-06-26T16:51:31.463Z,10.60
2019-06-26T16:54:02.174Z,9.27
2019-06-26T16:56:33.105Z,10.00
2019-06-26T16:59:04.292Z,9.83
2019-06-26T17:01:35.034Z,12.17
2019-06-26T17:04:05.760Z,9.23
2019-06-26T17:06:37.396Z,10.33
2019-06-26T17:09:09.928Z,10.50
2019-06-26T17:11:40.873Z,10.07
2019-06-26T17:14:11.582Z,10.30
2019-06-26T17:16:42.281Z,11.63
2019-06-26T17:19:13.274Z,11.53
2019-06-26T17:21:44.241Z,10.70
2019-06-26T17:24:15.262Z,9.40
2019-06-26T17:26:46.076Z,10.03
2019-06-26T17:29:17.030Z,10.83
2019-06-26T17:31:47.724Z,10.43
2019-06-26T17:34:18.722Z,10.70
2019-06-26T17:36:50.661Z,9.80
2019-06-26T17:39:21.646Z,9.93
2019-06-26T17:41:52.639Z,10.70
2019-06-26T17:44:23.597Z,10.23
2019-06-26T17:46:54.544Z,10.10
2019-06-26T17:49:25.488Z,12.70
2019-06-26T17:51:56.205Z,9.77
2019-06-26T17:54:27.170Z,10.20
2019-06-26T17:56:57.873Z,11.50
2019-06-26T17:59:28.570Z,9.97
2019-06-26T18:01:59.278Z,10.93
2019-06-26T18:04:30.003Z,11.93
2019-06-26T18:07:00.716Z,10.90
2019-06-26T18:09:31.689Z,10.20
2019-06-26T18:12:02.483Z,10.27
2019-06-26T18:14:33.500Z,10.57
2019-06-26T18:17:20.914Z,12.70
2019-06-26T18:19:37.264Z,10.87
2019-06-26T18:22:08.388Z,10.50
2019-06-26T18:24:39.330Z,10.80
2019-06-26T18:27:10.127Z,13.00
2019-06-26T18:29:40.873Z,12.43
2019-06-26T18:32:11.848Z,12.43
2019-06-26T18:34:46.905Z,12.13
2019-06-26T18:37:20.943Z,12.23
2019-06-26T18:39:57.743Z,12.10
2019-06-26T18:42:29.016Z,12.23
2019-06-26T18:45:00.041Z,12.27
2019-06-26T18:47:31.053Z,12.90
2019-06-26T18:50:01.883Z,17.47
2019-06-26T18:52:32.954Z,12.20
2019-06-26T18:55:05.474Z,11.53
2019-06-26T18:57:36.469Z,11.90
2019-06-26T19:00:09.940Z,12.43
2019-06-26T19:02:41.005Z,12.33
2019-06-26T19:05:12.465Z,11.57
2019-06-26T19:07:43.182Z,10.87
2019-06-26T19:10:16.544Z,13.63
2019-06-26T19:12:48.669Z,13.27
2019-06-26T19:15:20.224Z,13.10
2019-06-26T19:17:51.525Z,11.40
2019-06-26T19:20:23.183Z,12.80
2019-06-26T19:22:53.844Z,11.27
2019-06-26T19:25:24.933Z,11.03
2019-06-26T19:27:55.896Z,13.70
2019-06-26T19:30:26.927Z,11.37
2019-06-26T19:32:57.634Z,12.93
2019-06-26T19:35:28.582Z,11.60
2019-06-26T19:37:59.401Z,11.43
2019-06-26T19:40:30.100Z,11.33
2019-06-26T19:43:00.887Z,11.13
2019-06-26T19:45:31.869Z,11.67
2019-06-26T19:48:02.970Z,11.83
2019-06-26T19:50:34.337Z,11.10
2019-06-26T19:53:07.218Z,10.57
2019-06-26T19:55:38.253Z,11.80
2019-06-26T19:58:09.174Z,11.70
2019-06-26T20:00:40.160Z,11.40
2019-06-26T20:03:11.149Z,11.37
2019-06-26T20:05:42.097Z,10.90
2019-06-26T20:08:13.090Z,12.63
2019-06-26T20:10:44.004Z,11.93
2019-06-26T20:13:14.705Z,10.93
2019-06-26T20:15:45.450Z,10.80
2019-06-26T20:18:16.248Z,11.53
2019-06-26T20:20:46.984Z,13.73
2019-06-26T20:23:17.767Z,12.07
2019-06-26T20:25:52.528Z,11.83
2019-06-26T20:28:23.592Z,11.93
2019-06-26T20:30:54.447Z,11.80
2019-06-26T20:33:25.721Z,12.40
2019-06-26T20:35:56.457Z,12.13
2019-06-26T20:38:27.741Z,12.77
2019-06-26T20:40:59.264Z,11.50
2019-06-26T20:43:30.094Z,12.60
2019-06-26T20:46:01.189Z,12.37
2019-06-26T20:48:32.176Z,11.77
2019-06-26T20:51:03.262Z,11.80
2019-06-26T20:53:34.264Z,11.47
2019-06-26T20:56:05.723Z,13.30
2019-06-26T20:58:39.095Z,11.30
2019-06-26T21:01:10.043Z,11.43
2019-06-26T21:03:40.886Z,11.60
2019-06-26T21:06:12.558Z,10.83
2019-06-26T21:08:43.655Z,12.70
2019-06-26T21:11:15.991Z,11.13
2019-06-26T21:13:48.026Z,10.97
2019-06-26T21:16:19.130Z,10.33
2019-06-26T21:18:50.231Z,10.70
2019-06-26T21:21:21.346Z,10.30
2019-06-26T21:23:52.062Z,10.50
2019-06-26T21:26:23.171Z,10.57
2019-06-26T21:28:54.671Z,10.23
2019-06-26T21:31:25.742Z,10.97
2019-06-26T21:33:57.012Z,12.37
2019-06-26T21:36:27.738Z,12.33
2019-06-26T21:38:58.479Z,10.30
2019-06-26T21:41:29.667Z,11.70
2019-06-26T21:44:01.214Z,11.03
2019-06-26T21:46:31.869Z,13.67
2019-06-26T21:49:03.836Z,10.83
2019-06-26T21:51:34.830Z,10.37
2019-06-26T21:54:05.599Z,10.90
2019-06-26T21:56:54.037Z,11.17
2019-06-26T21:59:42.779Z,10.47
2019-06-26T22:02:32.582Z,10.80
2019-06-26T22:05:11.339Z,10.43
2019-06-26T22:08:01.382Z,10.27
2019-06-26T22:10:37.074Z,9.37
2019-06-26T22:13:07.820Z,10.47
2019-06-26T22:15:38.805Z,9.83
2019-06-26T22:18:10.088Z,10.47
2019-06-26T22:20:41.176Z,10.27
2019-06-26T22:23:12.432Z,11.23
2019-06-26T22:25:50.758Z,9.73
2019-06-26T22:28:16.688Z,10.67
2019-06-26T22:30:47.426Z,9.50
2019-06-26T22:33:18.490Z,10.73
2019-06-26T22:35:49.236Z,9.23
2019-06-26T22:38:20.272Z,12.23
2019-06-26T22:40:51.303Z,9.50
2019-06-26T22:43:41.388Z,10.00
2019-06-26T22:46:12.431Z,9.33
2019-06-26T22:48:43.100Z,9.37
2019-06-26T22:51:13.837Z,9.80
2019-06-26T22:53:45.034Z,10.53
2019-06-26T22:56:16.101Z,9.60
2019-06-26T22:58:46.792Z,9.87
2019-06-26T23:01:17.778Z,9.53
2019-06-26T23:03:48.793Z,9.10
2019-06-26T23:06:20.166Z,10.23
2019-06-26T23:08:50.842Z,10.00
2019-06-26T23:11:21.538Z,9.70
2019-06-26T23:13:52.576Z,9.80
2019-06-26T23:16:23.586Z,9.17
2019-06-26T23:18:54.662Z,8.80
2019-06-26T23:21:25.684Z,9.00
2019-06-26T23:23:56.361Z,10.27
2019-06-26T23:26:27.411Z,9.60
2019-06-26T23:28:58.606Z,8.23
2019-06-26T23:31:29.364Z,8.50
2019-06-26T23:34:00.370Z,8.63
2019-06-26T23:36:31.417Z,8.43
2019-06-26T23:39:02.334Z,8.70
2019-06-26T23:41:33.291Z,8.10
2019-06-26T23:44:04.377Z,8.67
2019-06-26T23:46:35.059Z,7.73
2019-06-26T23:49:06.411Z,9.07
2019-06-26T23:51:38.367Z,7.90
2019-06-26T23:54:09.073Z,7.83
2019-06-26T23:56:40.996Z,8.13
2019-06-26T23:59:12.346Z,7.90
